createdAt,value
2018-10-19T00:02:21.738Z,63.72
2018-10-19T00:04:51.861Z,63.38
2018-10-19T00:07:23.221Z,63.84
2018-10-19T00:09:54.079Z,63.16
2018-10-19T00:12:24.512Z,63.15
2018-10-19T00:14:54.282Z,63.19
2018-10-19T00:17:25.821Z,63.12
2018-10-19T00:19:56.654Z,63.17
2018-10-19T00:22:29.927Z,63.51
2018-10-19T00:25:04.536Z,63.60
2018-10-19T00:27:35.691Z,62.58
2018-10-19T00:30:15.424Z,62.52
2018-10-19T00:32:46.189Z,62.62
2018-10-19T00:35:18.897Z,63.00
2018-10-19T00:37:50.070Z,62.79
2018-10-19T00:40:20.637Z,63.01
2018-10-19T00:42:51.868Z,63.56
2018-10-19T00:45:27.121Z,62.88
2018-10-19T00:47:58.272Z,62.64
2018-10-19T00:50:28.770Z,63.08
2018-10-19T00:53:02.877Z,62.58
2018-10-19T00:55:33.337Z,63.34
2018-10-19T00:58:13.923Z,62.67
2018-10-19T01:00:45.324Z,63.33
2018-10-19T01:03:16.725Z,63.51
2018-10-19T01:05:50.687Z,62.97
2018-10-19T01:08:36.386Z,63.04
2018-10-19T01:11:08.786Z,63.00
2018-10-19T01:13:41.930Z,63.40
2018-10-19T01:16:14.652Z,63.08
2018-10-19T01:18:46.447Z,63.85
2018-10-19T01:21:20.059Z,63.03
2018-10-19T01:23:52.330Z,64.16
2018-10-19T01:26:23.601Z,63.68
2018-10-19T01:28:55.791Z,63.90
2018-10-19T01:31:36.733Z,64.44
2018-10-19T01:34:09.095Z,64.33
2018-10-19T01:36:43.444Z,64.62
2018-10-19T01:39:14.518Z,63.74
2018-10-19T01:41:46.805Z,63.74
2018-10-19T01:44:18.492Z,64.07
2018-10-19T01:46:50.136Z,64.55
2018-10-19T01:49:23.221Z,64.57
2018-10-19T01:51:55.702Z,64.47
2018-10-19T01:54:25.301Z,63.79
2018-10-19T01:56:57.854Z,63.94
2018-10-19T01:59:28.627Z,64.39
2018-10-19T02:01:59.372Z,64.09
2018-10-19T02:04:30.417Z,64.41
2018-10-19T02:07:00.838Z,63.44
2018-10-19T02:09:32.963Z,62.90
2018-10-19T02:12:09.203Z,62.68
2018-10-19T02:14:42.323Z,63.08
2018-10-19T02:17:13.984Z,63.77
2018-10-19T02:19:44.225Z,63.65
2018-10-19T02:22:16.298Z,63.36
2018-10-19T02:24:48.546Z,62.24
2018-10-19T02:27:19.573Z,62.42
2018-10-19T02:29:51.018Z,63.23
2018-10-19T02:32:23.085Z,63.09
2018-10-19T02:34:54.593Z,62.69
2018-10-19T02:37:27.664Z,62.37
2018-10-19T02:39:58.829Z,61.25
2018-10-19T02:42:29.329Z,61.02
2018-10-19T02:47:53.864Z,61.85
2018-10-19T02:50:23.375Z,61.67
2018-10-19T02:52:54.049Z,61.18
2018-10-19T02:55:23.464Z,61.37
2018-10-19T02:57:53.424Z,61.84
2018-10-19T03:00:24.708Z,61.25
2018-10-19T03:02:55.525Z,60.77
2018-10-19T03:05:28.497Z,60.38
2018-10-19T03:07:58.267Z,60.73
2018-10-19T03:10:30.043Z,61.05
2018-10-19T03:13:03.271Z,62.02
2018-10-19T03:15:33.338Z,61.20
2018-10-19T03:18:16.371Z,61.26
2018-10-19T03:23:12.279Z,60.92
2018-10-19T03:28:21.933Z,61.48
2018-10-19T03:30:53.749Z,60.80
2018-10-19T03:33:24.992Z,61.06
2018-10-19T03:35:54.269Z,60.74
2018-10-19T03:38:24.442Z,60.24
2018-10-19T03:40:57.158Z,61.23
2018-10-19T03:43:31.531Z,60.60
2018-10-19T03:46:01.632Z,60.81
2018-10-19T03:48:36.451Z,60.98
2018-10-19T03:51:07.212Z,61.89
2018-10-19T03:53:38.043Z,62.24
2018-10-19T03:56:10.768Z,62.41
2018-10-19T03:58:40.264Z,62.37
2018-10-19T04:01:10.944Z,62.74
2018-10-19T04:03:44.937Z,62.27
2018-10-19T04:06:15.296Z,62.84
2018-10-19T04:08:45.929Z,63.29
2018-10-19T04:11:18.274Z,63.10
2018-10-19T04:13:50.399Z,63.91
2018-10-19T04:16:20.304Z,63.06
2018-10-19T04:18:51.778Z,63.00
2018-10-19T04:21:23.216Z,63.62
2018-10-19T04:23:56.285Z,62.92
2018-10-19T04:26:25.785Z,63.49
2018-10-19T04:28:56.615Z,62.96
2018-10-19T04:31:28.922Z,63.43
2018-10-19T04:33:58.210Z,63.38
2018-10-19T04:36:28.541Z,62.98
2018-10-19T04:39:03.717Z,63.61
2018-10-19T04:41:34.626Z,63.63
2018-10-19T04:44:06.885Z,63.68
2018-10-19T04:46:39.115Z,63.70
2018-10-19T04:49:11.441Z,63.93
2018-10-19T04:51:42.422Z,63.95
2018-10-19T04:54:28.111Z,64.31
2018-10-19T04:56:58.907Z,64.13
2018-10-19T04:59:32.153Z,63.45
2018-10-19T05:02:10.801Z,64.52
2018-10-19T05:04:40.538Z,64.67
2018-10-19T05:07:10.149Z,64.42
2018-10-19T05:09:40.025Z,65.38
2018-10-19T05:12:09.891Z,65.41
2018-10-19T05:14:39.240Z,65.10
2018-10-19T05:17:10.554Z,65.44
2018-10-19T05:22:21.862Z,65.21
2018-10-19T05:24:52.353Z,64.80
2018-10-19T05:27:23.509Z,64.16
2018-10-19T05:29:59.227Z,64.39
2018-10-19T05:32:32.597Z,65.15
2018-10-19T05:35:02.244Z,64.91
2018-10-19T05:37:32.445Z,64.90
2018-10-19T05:40:04.045Z,64.94
2018-10-19T05:42:35.802Z,65.31
2018-10-19T05:45:17.586Z,64.47
2018-10-19T05:47:52.214Z,65.16
2018-10-19T05:50:21.682Z,64.93
2018-10-19T05:52:51.633Z,65.16
2018-10-19T05:55:21.872Z,65.37
2018-10-19T05:57:58.711Z,66.08
2018-10-19T06:00:28.429Z,65.60
2018-10-19T06:02:58.034Z,65.60
2018-10-19T06:05:27.991Z,65.90
2018-10-19T06:07:59.075Z,66.22
2018-10-19T06:10:29.097Z,65.65
2018-10-19T06:12:59.767Z,65.83
2018-10-19T06:15:33.312Z,65.76
2018-10-19T06:18:03.242Z,65.63
2018-10-19T06:20:34.399Z,65.72
2018-10-19T06:23:04.878Z,65.25
2018-10-19T06:25:51.458Z,64.42
2018-10-19T06:28:21.318Z,64.35
2018-10-19T06:31:00.140Z,64.13
2018-10-19T06:33:32.875Z,64.68
2018-10-19T06:36:13.565Z,65.27
2018-10-19T06:38:58.478Z,64.29
2018-10-19T06:41:39.662Z,64.13
2018-10-19T06:44:16.302Z,64.07
2018-10-19T06:46:50.586Z,64.60
2018-10-19T06:49:20.592Z,64.67
2018-10-19T06:51:54.491Z,63.93
2018-10-19T06:55:16.532Z,63.96
2018-10-19T06:57:53.556Z,64.67
2018-10-19T07:00:30.373Z,64.23
2018-10-19T07:02:59.719Z,63.84
2018-10-19T07:05:31.290Z,64.51
2018-10-19T07:08:01.884Z,64.21
2018-10-19T07:10:33.163Z,63.73
2018-10-19T07:13:05.562Z,63.25
2018-10-19T07:15:36.536Z,63.80
2018-10-19T07:18:07.681Z,63.80
2018-10-19T07:20:37.139Z,63.92
2018-10-19T07:23:06.929Z,63.83
2018-10-19T07:25:37.309Z,63.91
2018-10-19T07:28:06.934Z,63.89
2018-10-19T07:30:37.130Z,63.33
2018-10-19T07:33:10.282Z,63.19
2018-10-19T07:35:41.898Z,63.25
2018-10-19T07:38:11.305Z,63.96
2018-10-19T07:40:43.584Z,63.85
2018-10-19T07:43:14.798Z,63.45
2018-10-19T07:45:46.774Z,63.11
2018-10-19T07:48:22.709Z,62.65
2018-10-19T07:50:52.837Z,62.60
2018-10-19T07:53:24.495Z,62.10
2018-10-19T07:56:06.310Z,61.89
2018-10-19T07:58:39.825Z,61.91
2018-10-19T08:01:10.240Z,60.86
2018-10-19T08:03:40.428Z,61.23
2018-10-19T08:06:13.034Z,60.08
2018-10-19T08:08:45.895Z,59.83
2018-10-19T08:14:20.648Z,61.05
2018-10-19T08:16:51.808Z,61.18
2018-10-19T08:19:21.149Z,60.83
2018-10-19T08:21:53.047Z,59.62
2018-10-19T08:24:24.544Z,59.28
2018-10-19T08:26:58.250Z,58.99
2018-10-19T08:29:30.301Z,58.56
2018-10-19T08:32:00.258Z,59.52
2018-10-19T08:34:30.012Z,58.56
2018-10-19T08:37:03.702Z,58.77
2018-10-19T08:39:35.101Z,58.64
2018-10-19T08:42:04.568Z,58.56
2018-10-19T08:44:33.975Z,58.61
2018-10-19T08:47:06.692Z,58.64
2018-10-19T08:49:42.987Z,57.05
2018-10-19T08:52:16.500Z,56.86
2018-10-19T08:54:46.798Z,56.80
2018-10-19T08:57:18.662Z,57.35
2018-10-19T08:59:49.598Z,56.97
2018-10-19T09:02:19.174Z,56.53
2018-10-19T09:04:50.065Z,56.64
2018-10-19T09:07:23.261Z,57.29
2018-10-19T09:09:54.252Z,56.59
2018-10-19T09:12:25.104Z,56.32
2018-10-19T09:15:05.589Z,56.72
2018-10-19T09:17:36.597Z,56.72
2018-10-19T09:20:06.757Z,56.02
2018-10-19T09:22:36.586Z,56.24
2018-10-19T09:25:10.350Z,56.71
2018-10-19T09:27:44.518Z,55.79
2018-10-19T09:30:19.589Z,55.29
2018-10-19T09:32:50.252Z,52.45
2018-10-19T09:35:21.297Z,51.36
2018-10-19T09:38:00.817Z,51.73
2018-10-19T09:40:33.671Z,49.27
2018-10-19T09:43:05.504Z,48.46
2018-10-19T09:45:35.267Z,47.93
2018-10-19T09:48:05.765Z,47.34
2018-10-19T09:50:47.012Z,46.54
2018-10-19T09:53:21.522Z,46.68
2018-10-19T09:56:07.696Z,45.66
2018-10-19T09:58:39.737Z,44.50
2018-10-19T10:01:18.457Z,42.87
2018-10-19T10:03:55.060Z,43.58
2018-10-19T10:06:25.502Z,41.21
2018-10-19T10:08:56.741Z,39.32
2018-10-19T10:11:39.560Z,39.27
2018-10-19T10:14:10.460Z,37.65
2018-10-19T10:16:51.596Z,37.81
2018-10-19T10:19:23.771Z,35.79
2018-10-19T10:21:59.688Z,33.66
2018-10-19T10:24:47.968Z,34.39
2018-10-19T10:27:30.404Z,35.09
2018-10-19T10:30:20.721Z,32.36
2018-10-19T10:32:55.674Z,33.55
2018-10-19T10:38:16.756Z,35.56
2018-10-19T10:41:04.965Z,37.08
2018-10-19T10:43:42.490Z,38.11
2018-10-19T10:46:26.827Z,38.42
2018-10-19T10:49:11.429Z,36.70
2018-10-19T10:51:50.401Z,36.43
2018-10-19T10:54:20.836Z,35.43
2018-10-19T10:57:08.159Z,34.99
2018-10-19T10:59:39.813Z,36.24
2018-10-19T11:02:11.299Z,39.26
2018-10-19T11:04:41.454Z,39.92
2018-10-19T11:07:16.003Z,41.78
2018-10-19T11:09:45.306Z,41.95
2018-10-19T11:12:16.735Z,41.35
2018-10-19T11:14:50.323Z,42.19
2018-10-19T11:17:24.300Z,44.06
2018-10-19T11:19:57.468Z,44.23
2018-10-19T11:22:27.776Z,42.73
2018-10-19T11:24:58.470Z,42.17
2018-10-19T11:27:28.567Z,42.51
2018-10-19T11:30:04.700Z,42.60
2018-10-19T11:32:44.265Z,42.52
2018-10-19T11:35:16.586Z,44.30
2018-10-19T11:37:50.251Z,45.06
2018-10-19T11:40:32.698Z,46.94
2018-10-19T11:43:32.465Z,47.59
2018-10-19T11:46:10.613Z,47.38
2018-10-19T11:48:47.837Z,47.20
2018-10-19T11:51:19.202Z,47.90
2018-10-19T11:53:59.693Z,46.79
2018-10-19T11:56:31.988Z,46.30
2018-10-19T12:01:40.861Z,46.25
2018-10-19T12:04:12.415Z,44.99
2018-10-19T12:06:49.777Z,45.46
2018-10-19T12:09:20.206Z,45.43
2018-10-19T12:11:57.992Z,44.33
2018-10-19T12:14:32.202Z,44.19
2018-10-19T12:17:03.212Z,43.74
2018-10-19T12:19:42.264Z,43.76
2018-10-19T12:22:15.883Z,44.15
2018-10-19T12:24:48.535Z,43.87
2018-10-19T12:27:30.360Z,44.34
2018-10-19T12:30:04.427Z,44.60
2018-10-19T12:32:41.163Z,44.21
2018-10-19T12:35:12.844Z,44.38
2018-10-19T12:37:43.728Z,44.37
2018-10-19T12:42:50.083Z,44.77
2018-10-19T12:46:51.552Z,44.70
2018-10-19T12:49:24.374Z,44.71
2018-10-19T12:51:56.368Z,45.61
2018-10-19T12:54:30.503Z,44.89
2018-10-19T12:57:01.419Z,44.58
2018-10-19T13:01:55.855Z,43.87
2018-10-19T13:04:25.316Z,42.58
2018-10-19T13:06:55.166Z,42.43
2018-10-19T13:09:32.957Z,42.04
2018-10-19T13:12:04.209Z,41.53
2018-10-19T13:14:36.558Z,40.86
2018-10-19T13:17:08.619Z,41.35
2018-10-19T13:19:38.623Z,41.37
2018-10-19T13:22:10.909Z,42.18
2018-10-19T13:24:46.562Z,42.62
2018-10-19T13:27:17.690Z,42.75
2018-10-19T13:29:48.309Z,43.47
2018-10-19T13:32:24.907Z,43.80
2018-10-19T13:35:00.059Z,43.66
2018-10-19T13:37:36.245Z,44.27
2018-10-19T13:40:09.357Z,44.72
2018-10-19T13:42:41.485Z,43.71
2018-10-19T13:45:18.199Z,43.76
2018-10-19T13:47:52.345Z,44.14
2018-10-19T13:50:25.383Z,44.61
2018-10-19T13:52:59.253Z,44.95
2018-10-19T13:55:38.258Z,44.75
2018-10-19T13:58:11.151Z,44.22
2018-10-19T14:00:41.893Z,44.38
2018-10-19T14:03:11.715Z,44.16
2018-10-19T14:05:41.457Z,44.19
2018-10-19T14:08:13.676Z,45.07
2018-10-19T14:10:44.074Z,44.67
2018-10-19T14:16:14.043Z,43.96
2018-10-19T14:18:50.276Z,44.06
2018-10-19T14:21:21.232Z,44.00
2018-10-19T14:23:51.133Z,44.94
2018-10-19T14:26:22.372Z,44.97
2018-10-19T14:28:55.231Z,44.87
2018-10-19T14:31:37.295Z,44.33
2018-10-19T14:34:16.737Z,44.40
2018-10-19T14:36:51.379Z,43.79
2018-10-19T14:39:21.780Z,43.21
2018-10-19T14:41:51.792Z,43.92
2018-10-19T14:44:23.969Z,43.45
2018-10-19T14:46:59.110Z,43.83
2018-10-19T14:49:28.282Z,43.05
2018-10-19T14:52:02.839Z,42.94
2018-10-19T14:54:42.816Z,43.84
2018-10-19T14:57:12.957Z,44.05
2018-10-19T14:59:44.980Z,45.02
2018-10-19T15:02:16.816Z,45.65
2018-10-19T15:05:06.882Z,46.56
2018-10-19T15:07:39.306Z,47.84
2018-10-19T15:10:16.968Z,47.46
2018-10-19T15:12:47.902Z,48.05
2018-10-19T15:15:21.737Z,48.18
2018-10-19T15:17:57.075Z,47.52
2018-10-19T15:20:36.626Z,47.77
2018-10-19T15:23:09.276Z,48.87
2018-10-19T15:25:40.818Z,49.27
2018-10-19T15:28:14.713Z,49.11
2018-10-19T15:30:51.538Z,48.86
2018-10-19T15:33:22.577Z,48.92
2018-10-19T15:36:04.773Z,49.50
2018-10-19T15:41:16.078Z,49.93
2018-10-19T15:43:47.589Z,49.08
2018-10-19T15:46:21.455Z,49.42
2018-10-19T15:48:53.191Z,49.73
2018-10-19T15:51:22.990Z,50.00
2018-10-19T15:53:53.696Z,50.07
2018-10-19T15:56:34.126Z,50.46
2018-10-19T15:59:04.033Z,50.28
2018-10-19T16:01:35.414Z,49.56
2018-10-19T16:04:07.751Z,49.80
2018-10-19T16:06:42.799Z,49.66
2018-10-19T16:09:14.774Z,50.48
2018-10-19T16:11:46.203Z,50.80
2018-10-19T16:14:17.683Z,50.45
2018-10-19T16:16:51.373Z,50.83
2018-10-19T16:19:22.082Z,50.90
2018-10-19T16:21:55.022Z,50.86
2018-10-19T16:24:29.718Z,50.57
2018-10-19T16:27:01.392Z,51.40
2018-10-19T16:29:38.039Z,51.82
2018-10-19T16:32:07.837Z,51.13
2018-10-19T16:34:39.449Z,51.61
2018-10-19T16:37:09.911Z,51.88
2018-10-19T16:39:39.131Z,51.80
2018-10-19T16:42:28.311Z,51.83
2018-10-19T16:45:00.309Z,52.70
2018-10-19T16:47:37.815Z,52.43
2018-10-19T16:50:07.267Z,52.55
2018-10-19T16:52:37.077Z,53.28
2018-10-19T16:55:08.303Z,53.03
2018-10-19T16:57:38.312Z,53.03
2018-10-19T17:03:11.763Z,52.85
2018-10-19T17:05:43.185Z,53.14
2018-10-19T17:08:14.477Z,53.79
2018-10-19T17:10:44.374Z,53.71
2018-10-19T17:13:14.771Z,53.32
2018-10-19T17:15:48.379Z,54.21
2018-10-19T17:18:19.843Z,53.41
2018-10-19T17:20:49.581Z,53.65
2018-10-19T17:23:24.884Z,54.36
2018-10-19T17:25:54.883Z,54.13
2018-10-19T17:28:30.146Z,54.70
2018-10-19T17:31:05.679Z,54.37
2018-10-19T17:33:37.177Z,55.44
2018-10-19T17:36:09.097Z,54.63
2018-10-19T17:38:39.038Z,55.13
2018-10-19T17:41:10.578Z,54.80
2018-10-19T17:43:43.309Z,54.94
2018-10-19T17:46:15.386Z,54.88
2018-10-19T17:48:48.041Z,53.94
2018-10-19T17:51:18.929Z,53.94
2018-10-19T17:53:50.060Z,54.56
2018-10-19T17:56:21.302Z,54.64
2018-10-19T17:58:53.017Z,54.43
2018-10-19T18:01:27.986Z,53.84
2018-10-19T18:04:05.953Z,54.57
2018-10-19T18:06:36.432Z,54.62
2018-10-19T18:11:57.583Z,54.91
2018-10-19T18:14:28.162Z,54.90
2018-10-19T18:16:57.747Z,54.44
2018-10-19T18:19:27.834Z,55.20
2018-10-19T18:22:05.902Z,55.06
2018-10-19T18:24:36.679Z,54.73
2018-10-19T18:27:09.918Z,54.41
2018-10-19T18:29:42.897Z,54.66
2018-10-19T18:32:18.908Z,54.95
2018-10-19T18:34:53.158Z,54.90
2018-10-19T18:37:24.381Z,54.59
2018-10-19T18:40:02.409Z,54.77
2018-10-19T18:42:34.023Z,54.96
2018-10-19T18:45:16.457Z,54.75
2018-10-19T18:47:46.297Z,55.45
2018-10-19T18:50:17.807Z,55.61
2018-10-19T18:52:51.492Z,54.95
2018-10-19T18:55:22.783Z,55.93
2018-10-19T18:57:52.669Z,55.70
2018-10-19T19:00:28.426Z,55.06
2018-10-19T19:03:01.299Z,55.94
2018-10-19T19:05:36.137Z,56.11
2018-10-19T19:08:09.079Z,56.21
2018-10-19T19:10:41.344Z,55.78
2018-10-19T19:13:19.390Z,55.53
2018-10-19T19:15:51.150Z,55.80
2018-10-19T19:18:20.616Z,56.30
2018-10-19T19:20:51.444Z,56.02
2018-10-19T19:23:21.372Z,55.68
2018-10-19T19:26:00.448Z,55.59
2018-10-19T19:28:31.942Z,55.91
2018-10-19T19:31:08.201Z,56.33
2018-10-19T19:33:54.263Z,56.41
2018-10-19T19:36:26.657Z,56.41
2018-10-19T19:41:25.341Z,56.35
2018-10-19T19:43:57.560Z,57.10
2018-10-19T19:46:28.665Z,56.73
2018-10-19T19:49:09.367Z,56.94
2018-10-19T19:51:39.238Z,58.10
2018-10-19T19:54:10.370Z,58.06
2018-10-19T19:56:43.225Z,57.48
2018-10-19T19:59:12.460Z,58.46
2018-10-19T20:01:43.901Z,57.69
2018-10-19T20:04:18.791Z,58.32
2018-10-19T20:06:48.723Z,57.88
2018-10-19T20:09:18.661Z,58.54
2018-10-19T20:11:50.130Z,57.90
2018-10-19T20:14:20.737Z,57.97
2018-10-19T20:16:57.471Z,58.24
2018-10-19T20:19:30.448Z,58.32
2018-10-19T20:22:03.353Z,58.36
2018-10-19T20:24:33.167Z,58.66
2018-10-19T20:27:02.610Z,58.71
2018-10-19T20:29:37.576Z,58.86
2018-10-19T20:32:08.196Z,58.69
2018-10-19T20:34:41.448Z,58.94
2018-10-19T20:37:11.803Z,58.88
2018-10-19T20:39:43.500Z,58.38
2018-10-19T20:42:17.290Z,58.85
2018-10-19T20:44:47.242Z,58.43
2018-10-19T20:47:17.717Z,58.26
2018-10-19T20:49:50.885Z,58.28
2018-10-19T20:52:24.233Z,58.69
2018-10-19T20:54:57.761Z,57.81
2018-10-19T20:57:28.000Z,57.67
2018-10-19T21:00:05.915Z,57.37
2018-10-19T21:02:36.636Z,57.64
2018-10-19T21:05:07.176Z,57.48
2018-10-19T21:07:38.437Z,57.90
2018-10-19T21:10:11.017Z,57.48
2018-10-19T21:12:41.220Z,58.26
2018-10-19T21:15:29.167Z,57.74
2018-10-19T21:17:59.314Z,58.13
2018-10-19T21:20:50.139Z,58.67
2018-10-19T21:23:21.572Z,59.16
2018-10-19T21:25:51.616Z,59.05
2018-10-19T21:28:27.386Z,60.43
2018-10-19T21:31:01.272Z,60.30
2018-10-19T21:33:31.261Z,60.85
2018-10-19T21:36:16.256Z,60.33
2018-10-19T21:38:53.371Z,60.78
2018-10-19T21:41:27.323Z,61.71
2018-10-19T21:44:00.366Z,61.89
2018-10-19T21:46:29.937Z,61.30
2018-10-19T21:49:01.806Z,61.16
2018-10-19T21:51:33.378Z,61.51
2018-10-19T21:54:03.289Z,61.81
2018-10-19T21:56:33.262Z,61.91
2018-10-19T21:59:07.438Z,62.18
2018-10-19T22:01:38.966Z,62.47
2018-10-19T22:04:09.548Z,62.65
2018-10-19T22:06:39.071Z,61.66
2018-10-19T22:09:10.569Z,61.74
2018-10-19T22:11:41.771Z,62.73
2018-10-19T22:14:20.324Z,61.92
2018-10-19T22:16:57.442Z,62.06
2018-10-19T22:19:28.238Z,62.62
2018-10-19T22:21:57.675Z,62.72
2018-10-19T22:24:28.491Z,62.57
2018-10-19T22:27:01.061Z,63.30
2018-10-19T22:29:31.527Z,63.49
2018-10-19T22:32:01.019Z,63.26
2018-10-19T22:34:30.780Z,62.80
2018-10-19T22:37:01.979Z,63.33
2018-10-19T22:39:36.419Z,63.27
2018-10-19T22:42:06.850Z,62.97
2018-10-19T22:44:36.588Z,62.74
2018-10-19T22:47:07.897Z,63.15
2018-10-19T22:49:38.290Z,63.15
2018-10-19T22:52:08.370Z,63.29
2018-10-19T22:54:39.996Z,64.06
2018-10-19T22:57:11.337Z,64.25
2018-10-19T22:59:42.401Z,63.99
2018-10-19T23:02:14.077Z,63.03
2018-10-19T23:04:44.785Z,64.01
2018-10-19T23:07:44.862Z,63.42
2018-10-19T23:10:14.371Z,63.37
2018-10-19T23:12:45.198Z,64.27
2018-10-19T23:15:22.593Z,64.30
2018-10-19T23:17:55.816Z,64.10
2018-10-19T23:20:30.235Z,63.70
2018-10-19T23:23:03.125Z,64.20
2018-10-19T23:25:33.856Z,63.27
2018-10-19T23:28:05.751Z,63.13
2018-10-19T23:33:00.857Z,63.30
2018-10-19T23:35:32.843Z,63.50
2018-10-19T23:38:08.106Z,63.13
2018-10-19T23:40:38.776Z,64.03
2018-10-19T23:43:09.331Z,63.48
2018-10-19T23:45:41.033Z,63.50
2018-10-19T23:48:11.421Z,63.92
2018-10-19T23:50:42.793Z,63.78
2018-10-19T23:53:13.532Z,64.10
2018-10-19T23:55:45.663Z,63.65
2018-10-19T23:58:17.938Z,63.75
